createdAt,value
2023-05-20T00:01:42.616Z,13.98
2023-05-20T00:04:12.581Z,13.10
2023-05-20T00:06:42.746Z,13.30
2023-05-20T00:09:12.573Z,12.00
2023-05-20T00:11:42.709Z,13.45
2023-05-20T00:14:13.030Z,12.52
2023-05-20T00:16:43.451Z,12.63
2023-05-20T00:19:13.220Z,13.70
2023-05-20T00:21:43.001Z,12.05
2023-05-20T00:24:17.573Z,10.52
2023-05-20T00:26:47.325Z,13.02
2023-05-20T00:29:17.401Z,12.35
2023-05-20T00:31:47.267Z,11.38
2023-05-20T00:34:16.997Z,11.70
2023-05-20T00:36:47.165Z,10.65
2023-05-20T00:39:18.007Z,11.20
2023-05-20T00:41:48.107Z,10.48
2023-05-20T00:44:19.909Z,10.52
2023-05-20T00:46:50.269Z,10.68
2023-05-20T00:49:21.170Z,10.57
2023-05-20T00:51:50.880Z,10.13
2023-05-20T00:54:23.296Z,10.35
2023-05-20T00:56:56.391Z,9.95
2023-05-20T00:59:26.106Z,9.48
2023-05-20T01:01:55.943Z,11.13
2023-05-20T01:04:26.003Z,9.45
2023-05-20T01:06:57.644Z,10.13
2023-05-20T01:09:28.370Z,9.65
2023-05-20T01:12:18.881Z,9.02
2023-05-20T01:14:52.806Z,9.73
2023-05-20T01:17:25.975Z,9.32
2023-05-20T01:19:58.092Z,9.45
2023-05-20T01:22:31.379Z,8.98
2023-05-20T01:25:01.042Z,8.02
2023-05-20T01:27:32.304Z,8.73
2023-05-20T01:30:02.371Z,9.10
2023-05-20T01:32:42.692Z,10.15
2023-05-20T01:35:12.684Z,8.77
2023-05-20T01:37:43.534Z,9.00
2023-05-20T01:40:14.523Z,8.73
2023-05-20T01:42:45.569Z,9.90
2023-05-20T01:45:15.275Z,8.95
2023-05-20T01:47:47.573Z,9.00
2023-05-20T01:50:17.867Z,8.15
2023-05-20T01:52:47.957Z,9.02
2023-05-20T01:55:17.731Z,8.88
2023-05-20T01:57:47.916Z,8.40
2023-05-20T02:00:17.768Z,7.25
2023-05-20T02:02:47.628Z,7.32
2023-05-20T02:05:18.203Z,10.50
2023-05-20T02:07:48.008Z,8.57
2023-05-20T02:10:17.849Z,8.23
2023-05-20T02:12:50.370Z,8.63
2023-05-20T02:15:20.525Z,8.30
2023-05-20T02:17:50.985Z,8.13
2023-05-20T02:20:21.091Z,8.02
2023-05-20T02:22:51.157Z,7.88
2023-05-20T02:25:20.988Z,8.20
2023-05-20T02:27:51.360Z,9.20
2023-05-20T02:30:21.614Z,7.45
2023-05-20T02:32:51.307Z,8.70
2023-05-20T02:35:25.554Z,9.13
2023-05-20T02:37:55.268Z,7.93
2023-05-20T02:40:25.363Z,7.00
2023-05-20T02:42:55.068Z,8.32
2023-05-20T02:45:24.824Z,7.72
2023-05-20T02:47:54.539Z,7.22
2023-05-20T02:50:24.260Z,7.57
2023-05-20T02:52:53.978Z,8.30
2023-05-20T02:55:25.688Z,6.78
2023-05-20T02:57:55.511Z,6.82
2023-05-20T03:00:26.536Z,6.53
2023-05-20T03:02:56.241Z,7.28
2023-05-20T03:05:27.446Z,6.82
2023-05-20T03:07:58.385Z,6.55
2023-05-20T03:10:28.093Z,7.03
2023-05-20T03:12:59.323Z,6.93
2023-05-20T03:15:32.788Z,6.15
2023-05-20T03:18:02.622Z,6.80
2023-05-20T03:20:34.574Z,6.80
2023-05-20T03:23:04.581Z,7.03
2023-05-20T03:25:34.685Z,6.93
2023-05-20T03:28:04.605Z,6.95
2023-05-20T03:30:34.467Z,6.00
2023-05-20T03:33:04.475Z,6.97
2023-05-20T03:35:34.636Z,6.43
2023-05-20T03:38:04.508Z,7.65
2023-05-20T03:40:37.405Z,5.85
2023-05-20T03:43:07.165Z,6.18
2023-05-20T03:45:37.809Z,6.28
2023-05-20T03:48:08.637Z,6.47
2023-05-20T03:50:41.226Z,7.25
2023-05-20T03:53:11.685Z,6.60
2023-05-20T03:55:42.726Z,6.38
2023-05-20T03:58:12.860Z,6.28
2023-05-20T04:00:43.022Z,6.82
2023-05-20T04:03:13.680Z,6.65
2023-05-20T04:05:44.134Z,7.53
2023-05-20T04:08:15.403Z,7.10
2023-05-20T04:10:46.365Z,7.43
2023-05-20T04:13:16.761Z,7.32
2023-05-20T04:15:47.174Z,7.38
2023-05-20T04:18:16.890Z,6.82
2023-05-20T04:20:47.695Z,7.63
2023-05-20T04:23:18.191Z,7.25
2023-05-20T04:25:48.589Z,7.35
2023-05-20T04:28:18.329Z,10.52
2023-05-20T04:30:48.567Z,7.88
2023-05-20T04:33:20.466Z,8.70
2023-05-20T04:35:50.162Z,8.82
2023-05-20T04:38:19.907Z,8.57
2023-05-20T04:40:49.610Z,9.02
2023-05-20T04:43:19.405Z,8.95
2023-05-20T04:45:49.749Z,8.38
2023-05-20T04:48:22.193Z,10.45
2023-05-20T04:50:52.541Z,8.95
2023-05-20T04:53:23.513Z,9.93
2023-05-20T04:55:59.530Z,9.48
2023-05-20T04:58:32.306Z,9.18
2023-05-20T05:01:03.415Z,9.18
2023-05-20T05:03:37.189Z,8.63
2023-05-20T05:06:08.308Z,8.88
2023-05-20T05:08:38.087Z,9.52
2023-05-20T05:11:10.807Z,9.82
2023-05-20T05:13:40.552Z,9.40
2023-05-20T05:16:10.349Z,9.05
2023-05-20T05:18:40.485Z,9.65
2023-05-20T05:21:10.326Z,9.50
2023-05-20T05:23:40.748Z,9.88
2023-05-20T05:26:10.547Z,11.32
2023-05-20T05:28:40.296Z,10.55
2023-05-20T05:31:10.551Z,10.35
2023-05-20T05:33:40.305Z,10.65
2023-05-20T05:36:10.332Z,10.15
2023-05-20T05:38:40.706Z,11.55
2023-05-20T05:41:10.449Z,9.02
2023-05-20T05:43:40.166Z,9.48
2023-05-20T05:46:11.628Z,10.15
2023-05-20T05:48:41.822Z,9.65
2023-05-20T05:51:12.564Z,10.80
2023-05-20T05:53:42.333Z,10.25
2023-05-20T05:56:12.284Z,10.32
2023-05-20T05:58:42.454Z,10.57
2023-05-20T06:01:12.896Z,10.30
2023-05-20T06:03:42.787Z,9.30
2023-05-20T06:06:15.880Z,9.18
2023-05-20T06:08:45.561Z,9.63
2023-05-20T06:11:15.258Z,9.93
2023-05-20T06:13:46.036Z,9.52
2023-05-20T06:16:15.747Z,9.40
2023-05-20T06:18:45.930Z,9.88
2023-05-20T06:21:18.391Z,9.30
2023-05-20T06:23:48.069Z,9.85
2023-05-20T06:26:20.704Z,11.18
2023-05-20T06:28:50.794Z,8.98
2023-05-20T06:31:21.842Z,9.13
2023-05-20T06:33:51.537Z,8.93
2023-05-20T06:36:21.266Z,9.35
2023-05-20T06:38:50.961Z,7.88
2023-05-20T06:41:21.022Z,8.48
2023-05-20T06:43:52.594Z,7.65
2023-05-20T06:46:23.142Z,7.28
2023-05-20T06:48:53.284Z,7.97
2023-05-20T06:51:23.014Z,9.40
2023-05-20T06:53:53.325Z,8.13
2023-05-20T06:56:24.425Z,8.10
2023-05-20T06:58:54.560Z,8.10
2023-05-20T07:01:24.287Z,9.15
2023-05-20T07:03:54.127Z,8.88
2023-05-20T07:06:25.468Z,8.35
2023-05-20T07:08:55.569Z,7.10
2023-05-20T07:11:25.275Z,7.80
2023-05-20T07:13:55.241Z,8.15
2023-05-20T07:16:25.157Z,8.23
2023-05-20T07:18:57.747Z,7.35
2023-05-20T07:21:29.398Z,7.35
2023-05-20T07:23:59.170Z,7.82
2023-05-20T07:26:29.057Z,7.38
2023-05-20T07:28:59.189Z,8.07
2023-05-20T07:31:29.713Z,9.20
2023-05-20T07:33:59.712Z,6.90
2023-05-20T07:36:48.023Z,8.05
2023-05-20T07:39:18.094Z,8.48
2023-05-20T07:41:47.834Z,7.13
2023-05-20T07:44:17.603Z,7.18
2023-05-20T07:46:47.457Z,8.07
2023-05-20T07:49:17.250Z,8.98
2023-05-20T07:51:47.937Z,7.45
2023-05-20T07:54:18.654Z,8.20
2023-05-20T07:56:49.482Z,7.90
2023-05-20T07:59:19.754Z,7.43
2023-05-20T08:01:49.755Z,7.47
2023-05-20T08:04:19.617Z,7.25
2023-05-20T08:06:52.704Z,7.05
2023-05-20T08:09:22.384Z,7.40
2023-05-20T08:11:52.369Z,8.45
2023-05-20T08:14:22.519Z,7.60
2023-05-20T08:16:54.497Z,7.63
2023-05-20T08:19:24.722Z,7.95
2023-05-20T08:21:55.412Z,6.18
2023-05-20T08:24:25.234Z,7.35
2023-05-20T08:26:55.642Z,6.25
2023-05-20T08:29:26.818Z,6.50
2023-05-20T08:31:56.632Z,7.28
2023-05-20T08:34:27.159Z,7.10
2023-05-20T08:36:57.351Z,7.05
2023-05-20T08:39:28.868Z,7.03
2023-05-20T08:41:58.950Z,7.28
2023-05-20T08:44:28.662Z,6.55
2023-05-20T08:46:58.581Z,6.50
2023-05-20T08:49:28.715Z,6.22
2023-05-20T08:51:58.686Z,6.47
2023-05-20T08:54:29.370Z,6.53
2023-05-20T08:57:00.317Z,7.60
2023-05-20T08:59:30.107Z,5.47
2023-05-20T09:01:59.902Z,5.78
2023-05-20T09:04:29.695Z,5.45
2023-05-20T09:06:59.442Z,5.80
2023-05-20T09:09:29.567Z,5.38
2023-05-20T09:11:59.229Z,6.03
2023-05-20T09:14:31.726Z,6.03
2023-05-20T09:17:04.391Z,6.32
2023-05-20T09:19:34.227Z,6.75
2023-05-20T09:22:04.127Z,5.28
2023-05-20T09:24:33.930Z,5.15
2023-05-20T09:27:03.660Z,4.55
2023-05-20T09:29:36.800Z,5.43
2023-05-20T09:32:07.204Z,5.03
2023-05-20T09:34:37.051Z,6.20
2023-05-20T09:37:07.615Z,5.35
2023-05-20T09:39:58.763Z,6.10
2023-05-20T09:42:55.542Z,5.03
2023-05-20T09:45:26.454Z,5.57
2023-05-20T09:47:57.069Z,5.80
2023-05-20T09:50:27.156Z,4.20
2023-05-20T09:52:57.365Z,4.35
2023-05-20T09:55:28.065Z,4.90
2023-05-20T09:57:57.870Z,3.97
2023-05-20T10:00:27.959Z,4.80
2023-05-20T10:02:58.404Z,4.80
2023-05-20T10:05:39.900Z,4.57
2023-05-20T10:08:20.057Z,4.82
2023-05-20T10:11:23.381Z,4.75
2023-05-20T10:14:03.465Z,5.55
2023-05-20T10:17:03.478Z,4.97
2023-05-20T10:19:36.727Z,4.18
2023-05-20T10:22:10.732Z,4.93
2023-05-20T10:24:43.101Z,4.30
2023-05-20T10:27:16.238Z,4.10
2023-05-20T10:29:52.333Z,4.72
2023-05-20T10:32:36.478Z,4.35
2023-05-20T10:35:12.453Z,4.80
2023-05-20T10:37:46.921Z,5.22
2023-05-20T10:40:17.808Z,5.03
2023-05-20T10:42:47.827Z,3.60
2023-05-20T10:45:31.012Z,5.22
2023-05-20T10:48:01.468Z,4.72
2023-05-20T10:50:36.471Z,4.28
2023-05-20T10:53:25.299Z,5.00
2023-05-20T10:56:02.365Z,5.80
2023-05-20T10:58:39.480Z,5.35
2023-05-20T11:01:10.059Z,5.13
2023-05-20T11:03:40.494Z,5.45
2023-05-20T11:06:20.436Z,5.25
2023-05-20T11:08:50.610Z,4.78
2023-05-20T11:11:20.322Z,4.82
2023-05-20T11:13:54.343Z,5.68
2023-05-20T11:16:24.129Z,5.55
2023-05-20T11:18:54.003Z,6.40
2023-05-20T11:21:23.828Z,5.75
2023-05-20T11:23:54.836Z,5.47
2023-05-20T11:26:24.930Z,5.20
2023-05-20T11:28:55.071Z,5.90
2023-05-20T11:31:26.171Z,7.35
2023-05-20T11:33:56.069Z,6.07
2023-05-20T11:36:27.755Z,4.50
2023-05-20T11:39:01.280Z,5.65
2023-05-20T11:41:31.080Z,6.55
2023-05-20T11:44:01.919Z,6.75
2023-05-20T11:46:32.065Z,7.32
2023-05-20T11:49:01.790Z,6.80
2023-05-20T11:51:32.146Z,6.38
2023-05-20T11:54:05.648Z,7.18
2023-05-20T11:56:44.949Z,6.57
2023-05-20T11:59:16.319Z,8.20
2023-05-20T12:01:46.224Z,8.15
2023-05-20T12:04:16.856Z,7.00
2023-05-20T12:06:47.202Z,7.10
2023-05-20T12:09:16.956Z,7.70
2023-05-20T12:11:46.981Z,6.57
2023-05-20T12:14:17.097Z,6.82
2023-05-20T12:16:47.265Z,7.90
2023-05-20T12:19:17.894Z,6.72
2023-05-20T12:21:49.895Z,6.55
2023-05-20T12:24:20.998Z,7.43
2023-05-20T12:26:51.782Z,8.15
2023-05-20T12:29:21.448Z,7.90
2023-05-20T12:31:51.264Z,6.68
2023-05-20T12:34:21.436Z,8.25
2023-05-20T12:36:51.165Z,7.22
2023-05-20T12:39:21.241Z,7.20
2023-05-20T12:41:51.649Z,7.85
2023-05-20T12:44:21.330Z,8.02
2023-05-20T12:46:54.076Z,7.47
2023-05-20T12:49:23.809Z,7.82
2023-05-20T12:51:53.535Z,7.85
2023-05-20T12:54:23.323Z,8.13
2023-05-20T12:56:53.070Z,8.48
2023-05-20T12:59:23.029Z,7.82
2023-05-20T13:01:52.812Z,8.02
2023-05-20T13:04:22.904Z,8.70
2023-05-20T13:06:52.662Z,9.15
2023-05-20T13:09:23.942Z,7.70
2023-05-20T13:11:53.680Z,8.10
2023-05-20T13:14:23.715Z,8.70
2023-05-20T13:16:57.046Z,7.53
2023-05-20T13:19:28.323Z,8.18
2023-05-20T13:21:58.766Z,8.93
2023-05-20T13:24:31.547Z,9.10
2023-05-20T13:27:03.556Z,9.20
2023-05-20T13:29:33.445Z,10.30
2023-05-20T13:32:03.245Z,9.25
2023-05-20T13:34:33.404Z,8.82
2023-05-20T13:37:08.853Z,9.05
2023-05-20T13:39:39.144Z,9.65
2023-05-20T13:42:09.102Z,9.43
2023-05-20T13:44:38.821Z,9.55
2023-05-20T13:47:08.848Z,10.32
2023-05-20T13:49:39.295Z,10.32
2023-05-20T13:52:09.194Z,10.48
2023-05-20T13:54:39.086Z,9.88
2023-05-20T13:57:10.488Z,9.73
2023-05-20T13:59:40.249Z,9.07
2023-05-20T14:02:11.423Z,9.45
2023-05-20T14:04:42.597Z,10.65
2023-05-20T14:07:12.796Z,11.73
2023-05-20T14:09:43.276Z,9.88
2023-05-20T14:12:13.084Z,10.15
2023-05-20T14:14:43.800Z,10.18
2023-05-20T14:17:13.601Z,11.27
2023-05-20T14:19:43.292Z,10.35
2023-05-20T14:22:16.562Z,10.10
2023-05-20T14:24:46.352Z,10.98
2023-05-20T14:27:17.159Z,11.00
2023-05-20T14:29:48.087Z,10.93
2023-05-20T14:32:17.904Z,10.38
2023-05-20T14:34:48.093Z,11.18
2023-05-20T14:37:18.383Z,11.73
2023-05-20T14:39:50.402Z,11.30
2023-05-20T14:42:20.144Z,11.02
2023-05-20T14:44:52.667Z,11.85
2023-05-20T14:47:24.816Z,12.05
2023-05-20T14:49:55.363Z,11.23
2023-05-20T14:52:25.246Z,11.77
2023-05-20T14:54:55.012Z,11.40
2023-05-20T14:57:24.785Z,11.02
2023-05-20T14:59:54.799Z,12.50
2023-05-20T15:02:24.660Z,11.85
2023-05-20T15:04:54.416Z,11.25
2023-05-20T15:07:24.878Z,10.30
2023-05-20T15:09:54.640Z,11.23
2023-05-20T15:12:24.353Z,11.32
2023-05-20T15:14:54.728Z,10.68
2023-05-20T15:17:24.841Z,11.75
2023-05-20T15:19:55.289Z,10.73
2023-05-20T15:22:27.820Z,11.43
2023-05-20T15:24:58.181Z,10.98
2023-05-20T15:27:27.965Z,12.80
2023-05-20T15:30:00.431Z,11.40
2023-05-20T15:32:30.183Z,13.07
2023-05-20T15:34:59.979Z,12.77
2023-05-20T15:37:30.298Z,13.90
2023-05-20T15:40:00.403Z,13.32
2023-05-20T15:42:30.211Z,12.68
2023-05-20T15:45:00.545Z,14.10
2023-05-20T15:47:30.355Z,14.07
2023-05-20T15:50:00.833Z,13.65
2023-05-20T15:52:30.938Z,14.57
2023-05-20T15:55:02.245Z,13.48
2023-05-20T15:57:32.248Z,14.50
2023-05-20T16:00:07.787Z,12.60
2023-05-20T16:02:37.684Z,12.98
2023-05-20T16:05:08.557Z,13.55
2023-05-20T16:07:38.843Z,12.68
2023-05-20T16:10:09.175Z,13.40
2023-05-20T16:12:38.887Z,13.15
2023-05-20T16:15:10.085Z,12.10
2023-05-20T16:17:40.236Z,11.93
2023-05-20T16:20:11.534Z,12.50
2023-05-20T16:22:42.360Z,11.93
2023-05-20T16:25:15.772Z,13.00
2023-05-20T16:27:45.458Z,12.68
2023-05-20T16:30:16.064Z,13.90
2023-05-20T16:32:45.935Z,12.77
2023-05-20T16:35:16.695Z,13.73
2023-05-20T16:37:46.542Z,12.82
2023-05-20T16:40:16.343Z,12.98
2023-05-20T16:42:46.411Z,11.35
2023-05-20T16:45:16.204Z,12.95
2023-05-20T16:47:47.008Z,12.48
2023-05-20T16:50:17.197Z,13.10
2023-05-20T16:52:46.930Z,14.13
2023-05-20T16:55:16.695Z,14.82
2023-05-20T16:57:47.408Z,13.85
2023-05-20T17:00:17.832Z,12.18
2023-05-20T17:02:48.403Z,11.80
2023-05-20T17:05:18.227Z,13.15
2023-05-20T17:07:48.762Z,12.50
2023-05-20T17:10:18.497Z,12.25
2023-05-20T17:12:48.225Z,12.85
2023-05-20T17:15:18.049Z,13.07
2023-05-20T17:17:48.045Z,12.95
2023-05-20T17:20:18.803Z,12.48
2023-05-20T17:22:48.478Z,12.55
2023-05-20T17:25:18.273Z,12.32
2023-05-20T17:27:48.331Z,13.85
2023-05-20T17:30:21.665Z,12.85
2023-05-20T17:32:55.152Z,12.43
2023-05-20T17:35:28.207Z,13.43
2023-05-20T17:37:58.036Z,12.43
2023-05-20T17:40:27.805Z,12.57
2023-05-20T17:42:57.549Z,12.77
2023-05-20T17:45:27.747Z,12.85
2023-05-20T17:47:57.856Z,12.40
2023-05-20T17:50:27.661Z,14.13
2023-05-20T17:52:57.999Z,14.13
2023-05-20T17:55:28.192Z,13.70
2023-05-20T17:57:59.404Z,14.13
2023-05-20T18:00:30.505Z,13.93
2023-05-20T18:03:00.777Z,14.07
2023-05-20T18:05:31.110Z,13.85
2023-05-20T18:08:03.283Z,13.27
2023-05-20T18:10:33.249Z,15.35
2023-05-20T18:13:03.087Z,14.60
2023-05-20T18:15:33.013Z,13.45
2023-05-20T18:18:04.029Z,14.90
2023-05-20T18:20:34.812Z,13.55
2023-05-20T18:23:04.698Z,13.07
2023-05-20T18:25:35.616Z,13.30
2023-05-20T18:28:07.143Z,13.43
2023-05-20T18:30:37.157Z,13.93
2023-05-20T18:33:07.715Z,14.05
2023-05-20T18:35:37.535Z,13.70
2023-05-20T18:40:38.265Z,13.23
2023-05-20T18:43:08.055Z,15.73
2023-05-20T18:45:38.866Z,13.50
2023-05-20T18:48:08.711Z,13.63
2023-05-20T18:50:39.135Z,13.98
2023-05-20T18:53:08.815Z,13.23
2023-05-20T18:55:41.232Z,13.35
2023-05-20T18:58:10.903Z,13.07
2023-05-20T19:00:41.094Z,13.10
2023-05-20T19:03:10.815Z,14.20
2023-05-20T19:05:40.719Z,15.45
2023-05-20T19:08:10.893Z,13.32
2023-05-20T19:10:41.425Z,15.07
2023-05-20T19:13:11.152Z,12.43
2023-05-20T19:15:41.290Z,13.98
2023-05-20T19:18:11.463Z,13.45
2023-05-20T19:20:41.352Z,13.82
2023-05-20T19:23:11.084Z,13.35
2023-05-20T19:25:40.880Z,12.57
2023-05-20T19:28:11.049Z,12.60
2023-05-20T19:30:40.892Z,12.18
2023-05-20T19:33:10.746Z,13.48
2023-05-20T19:35:40.465Z,12.93
2023-05-20T19:38:10.882Z,11.98
2023-05-20T19:40:40.649Z,13.00
2023-05-20T19:43:10.323Z,13.30
2023-05-20T19:45:41.156Z,12.45
2023-05-20T19:48:10.918Z,12.95
2023-05-20T19:50:40.627Z,13.40
2023-05-20T19:53:11.160Z,13.38
2023-05-20T19:55:40.987Z,12.77
2023-05-20T19:58:11.868Z,12.32
2023-05-20T20:00:41.740Z,12.68
2023-05-20T20:03:11.468Z,12.32
2023-05-20T20:05:41.286Z,14.13
2023-05-20T20:08:11.617Z,12.07
2023-05-20T20:10:41.364Z,14.50
2023-05-20T20:13:11.582Z,14.05
2023-05-20T20:15:42.119Z,13.15
2023-05-20T20:18:12.264Z,12.82
2023-05-20T20:20:42.291Z,12.43
2023-05-20T20:23:12.709Z,11.70
2023-05-20T20:25:43.063Z,12.60
2023-05-20T20:28:13.114Z,11.95
2023-05-20T20:30:43.240Z,13.35
2023-05-20T20:33:13.180Z,11.93
2023-05-20T20:35:44.771Z,12.57
2023-05-20T20:38:15.600Z,11.73
2023-05-20T20:40:47.479Z,11.93
2023-05-20T20:43:21.145Z,12.52
2023-05-20T20:45:54.533Z,12.52
2023-05-20T20:48:28.404Z,11.68
2023-05-20T20:50:58.790Z,12.43
2023-05-20T20:53:28.551Z,11.95
2023-05-20T20:55:58.505Z,10.93
2023-05-20T20:58:28.695Z,10.63
2023-05-20T21:00:59.603Z,11.85
2023-05-20T21:03:30.045Z,11.73
2023-05-20T21:06:00.211Z,10.93
2023-05-20T21:08:31.822Z,11.75
2023-05-20T21:11:01.598Z,10.90
2023-05-20T21:13:32.295Z,11.52
2023-05-20T21:16:04.781Z,11.25
2023-05-20T21:18:34.522Z,11.27
2023-05-20T21:21:04.558Z,11.10
2023-05-20T21:23:34.222Z,11.63
2023-05-20T21:26:03.927Z,11.63
2023-05-20T21:28:34.510Z,10.27
2023-05-20T21:31:04.627Z,10.43
2023-05-20T21:33:35.958Z,11.35
2023-05-20T21:36:06.041Z,10.65
2023-05-20T21:38:36.123Z,11.73
2023-05-20T21:41:05.879Z,10.35
2023-05-20T21:43:36.199Z,11.02
2023-05-20T21:46:07.629Z,11.85
2023-05-20T21:48:38.087Z,10.57
2023-05-20T21:51:07.935Z,10.55
2023-05-20T21:53:38.064Z,10.65
2023-05-20T21:56:08.001Z,10.88
2023-05-20T21:58:42.688Z,10.75
2023-05-20T22:01:12.847Z,11.02
2023-05-20T22:03:42.644Z,11.10
2023-05-20T22:06:13.057Z,11.57
2023-05-20T22:08:43.179Z,10.52
2023-05-20T22:11:13.766Z,10.93
2023-05-20T22:13:45.102Z,10.73
2023-05-20T22:16:16.209Z,11.38
2023-05-20T22:18:46.223Z,10.65
2023-05-20T22:21:19.252Z,11.05
2023-05-20T22:23:49.731Z,11.38
2023-05-20T22:26:21.240Z,11.90
2023-05-20T22:28:50.987Z,11.70
2023-05-20T22:31:20.771Z,11.43
2023-05-20T22:33:51.078Z,13.48
2023-05-20T22:36:25.901Z,12.57
2023-05-20T22:38:57.186Z,11.88
2023-05-20T22:41:27.930Z,12.30
2023-05-20T22:43:58.777Z,12.32
2023-05-20T22:46:32.104Z,12.25
2023-05-20T22:49:03.240Z,12.63
2023-05-20T22:51:35.826Z,12.93
2023-05-20T22:54:05.546Z,12.45
2023-05-20T22:56:36.057Z,14.73
2023-05-20T22:59:05.793Z,13.45
2023-05-20T23:01:35.656Z,13.32
2023-05-20T23:04:09.272Z,13.60
2023-05-20T23:06:39.663Z,14.20
2023-05-20T23:09:12.970Z,13.55
2023-05-20T23:11:42.795Z,12.90
2023-05-20T23:14:12.569Z,11.88
2023-05-20T23:16:43.602Z,12.25
2023-05-20T23:19:13.364Z,13.27
2023-05-20T23:21:43.187Z,15.30
2023-05-20T23:24:13.936Z,13.48
2023-05-20T23:26:44.033Z,12.77
2023-05-20T23:29:13.741Z,13.65
2023-05-20T23:31:43.455Z,15.05
2023-05-20T23:34:13.728Z,14.25
2023-05-20T23:36:43.747Z,12.93
2023-05-20T23:39:15.604Z,13.75
2023-05-20T23:41:46.882Z,15.10
2023-05-20T23:44:16.617Z,16.52
2023-05-20T23:46:46.410Z,12.70
2023-05-20T23:49:16.590Z,15.90
2023-05-20T23:51:47.007Z,15.43
2023-05-20T23:54:18.209Z,14.15
2023-05-20T23:56:48.759Z,15.27
2023-05-20T23:59:19.766Z,15.73
